Time;durP1;ratioP1;P1;durP2;ratioP2;P2;SDS_P1;SDS_P2;PMS_P1;PMS_P2;Temp;Humidity;BMP_temperature;BMP_pressure;BME280_temperature;BME280_humidity;BME280_pressure;Samples;Min_cycle;Max_cycle;Signal;HPM_P1;HPM_P2
2023/09/19 05:10:09;;;;;;;;;;;;;;;20.28;75.11;96977.47;4229677;27;10230;-69
2023/09/19 05:12:12;;;;;;;;;;;;;;;20.57;74.57;96972.72;4236771;27;5696;-67
2023/09/19 05:14:15;;;;;;;;;;;;;;;20.79;73.94;96975.38;4241711;27;5586;-68
2023/09/19 05:16:18;;;;;;;;;;;;;;;20.97;73.42;96981.47;4247137;27;5598;-69
2023/09/19 05:18:21;;;;;;;;;;;;;;;21.10;72.55;96975.66;4246207;27;5605;-70
2023/09/19 05:20:32;;;;;;;;;;;;;;;21.22;72.08;96987.06;4242607;27;5349;-75
2023/09/19 05:22:34;;;;;;;;;;;;;;;21.30;71.55;96981.25;4235714;27;5616;-76
2023/09/19 05:24:37;;;;;;;;;;;;;;;21.37;71.08;96987.19;4233848;27;5757;-63
2023/09/19 05:26:41;;;;;;;;;;;;;;;21.44;70.65;96987.81;4244284;27;5803;-62
2023/09/19 05:28:44;;;;;;;;;;;;;;;21.49;70.84;96984.34;4232416;27;5750;-63
2023/09/19 05:30:47;;;;;;;;;;;;;;;21.53;70.58;96984.66;4236508;27;5783;-63
2023/09/19 05:32:51;;;;;;;;;;;;;;;21.58;70.24;96993.56;4241133;27;5735;-64
2023/09/19 05:34:56;;;;;;;;;;;;;;;21.61;70.03;96992.22;4246428;27;5593;-63
2023/09/19 05:36:59;;;;;;;;;;;;;;;21.63;69.52;96995.44;4235939;27;5677;-63
2023/09/19 05:39:02;;;;;;;;;;;;;;;21.66;69.60;97000.34;4243777;27;6305;-63
2023/09/19 05:41:03;;;;;;;;;;;;;;;21.65;69.07;96999.53;4238284;27;5594;-63
2023/09/19 05:43:08;;;;;;;;;;;;;;;21.67;69.32;97000.06;4236764;27;5513;-67
2023/09/19 05:45:12;;;;;;;;;;;;;;;21.67;68.57;97008.16;4239643;27;5698;-63
2023/09/19 05:47:15;;;;;;;;;;;;;;;21.69;68.95;97022.16;4241504;27;5635;-63
2023/09/19 05:49:18;;;;;;;;;;;;;;;21.70;68.52;97020.25;4240775;27;5700;-63
2023/09/19 05:51:22;;;;;;;;;;;;;;;21.72;68.32;97016.25;4231960;27;5620;-62
2023/09/19 05:53:25;;;;;;;;;;;;;;;21.73;68.47;97022.44;4230930;27;6804;-63
2023/09/19 05:55:28;;;;;;;;;;;;;;;21.74;68.32;97029.44;4234666;27;5610;-64
2023/09/19 05:57:30;;;;;;;;;;;;;;;21.74;67.77;97029.44;4246533;27;5611;-63
2023/09/19 05:59:34;;;;;;;;;;;;;;;21.71;67.93;97022.69;4247398;27;5737;-66
2023/09/19 06:01:38;;;;;;;;;;;;;;;21.72;67.89;97031.56;4243681;27;5660;-62
2023/09/19 06:03:40;;;;;;;;;;;;;;;21.73;67.64;97030.50;4246672;27;5601;-63
2023/09/19 06:05:43;;;;;;;;;;;;;;;21.72;67.05;97034.25;4240229;27;5799;-63
2023/09/19 06:07:46;;;;;;;;;;;;;;;21.72;66.83;97034.25;4247232;27;5804;-63
2023/09/19 06:09:50;;;;;;;;;;;;;;;21.72;66.92;97039.66;4232031;27;5705;-64
2023/09/19 06:11:53;;;;;;;;;;;;;;;21.72;67.07;97042.34;4226549;28;5110;-64
2023/09/19 06:13:56;;;;;;;;;;;;;;;21.73;66.51;97038.56;4232675;28;6469;-64
2023/09/19 06:16:02;;;;;;;;;;;;;;;21.73;66.70;97049.34;4233602;28;6290;-63
2023/09/19 06:18:05;;;;;;;;;;;;;;;21.73;66.19;97039.38;4225000;27;5616;-64
2023/09/19 06:20:12;;;;;;;;;;;;;;;21.71;66.00;97051.47;4226846;28;5609;-63
2023/09/19 06:22:17;;;;;;;;;;;;;;;21.71;66.22;97046.91;4221216;28;5628;-64
2023/09/19 06:24:21;;;;;;;;;;;;;;;21.73;66.42;97054.72;4230704;28;5610;-63
2023/09/19 06:26:26;;;;;;;;;;;;;;;21.76;66.46;97051.53;4237858;27;5952;-64
2023/09/19 06:28:29;;;;;;;;;;;;;;;21.78;66.45;97058.28;4229010;27;5789;-64
2023/09/19 06:30:32;;;;;;;;;;;;;;;21.80;66.03;97060.72;4232296;28;5814;-64
2023/09/19 06:32:36;;;;;;;;;;;;;;;21.81;66.04;97056.94;4235889;28;5849;-64
2023/09/19 06:34:42;;;;;;;;;;;;;;;21.82;65.86;97052.38;4235635;28;5685;-64
2023/09/19 06:36:45;;;;;;;;;;;;;;;21.83;66.09;97051.28;4235325;27;5688;-62
2023/09/19 06:38:47;;;;;;;;;;;;;;;21.83;65.61;97059.38;4234142;27;5712;-62
2023/09/19 06:40:50;;;;;;;;;;;;;;;21.80;65.65;97056.13;4251880;27;5595;-63
2023/09/19 06:42:53;;;;;;;;;;;;;;;21.82;65.44;97061.25;4246016;27;5700;-62
2023/09/19 06:44:56;;;;;;;;;;;;;;;21.84;65.72;97059.09;4235029;28;5610;-62
2023/09/19 06:46:59;;;;;;;;;;;;;;;21.85;65.41;97059.91;4227785;28;5840;-62
2023/09/19 06:49:06;;;;;;;;;;;;;;;21.85;65.72;97051.84;4224478;28;5841;-62
2023/09/19 06:51:09;;;;;;;;;;;;;;;21.85;65.09;97058.03;4234000;27;5804;-62
2023/09/19 06:53:12;;;;;;;;;;;;;;;21.86;65.40;97056.16;4235719;28;5602;-63
2023/09/19 06:55:16;;;;;;;;;;;;;;;21.88;65.60;97060.22;4216242;28;5727;-63
2023/09/19 06:57:19;;;;;;;;;;;;;;;21.90;65.39;97059.97;4218705;28;5829;-62
2023/09/19 06:59:22;;;;;;;;;;;;;;;21.92;65.19;97066.72;4229064;28;5083;-62
2023/09/19 07:01:26;;;;;;;;;;;;;;;21.94;65.48;97061.88;4234437;28;5606;-63
2023/09/19 07:03:29;;;;;;;;;;;;;;;21.95;65.30;97060.00;4235447;28;5602;-63
2023/09/19 07:05:33;;;;;;;;;;;;;;;21.95;65.13;97068.88;4245461;27;5071;-63
2023/09/19 07:07:36;;;;;;;;;;;;;;;21.97;64.77;97061.38;4229510;28;5739;-63
2023/09/19 07:09:39;;;;;;;;;;;;;;;21.99;64.97;97063.81;4218013;28;6448;-62
2023/09/19 07:11:42;;;;;;;;;;;;;;;22.00;64.55;97066.25;4229855;28;5590;-62
2023/09/19 07:13:45;;;;;;;;;;;;;;;22.01;64.69;97075.13;4232844;28;6613;-63
2023/09/19 07:15:49;;;;;;;;;;;;;;;22.00;65.01;97066.25;4219484;28;5708;-63
2023/09/19 07:17:54;;;;;;;;;;;;;;;22.06;64.80;97072.47;4232628;28;5717;-63
2023/09/19 07:19:57;;;;;;;;;;;;;;;22.07;64.53;97066.03;4221595;28;5629;-63
2023/09/19 07:22:02;;;;;;;;;;;;;;;22.08;64.71;97071.19;4233539;28;5602;-63
2023/09/19 07:24:07;;;;;;;;;;;;;;;22.07;64.81;97077.59;4244057;27;5674;-63
2023/09/19 07:26:10;;;;;;;;;;;;;;;22.07;64.41;97074.09;4249894;27;5670;-63
2023/09/19 07:28:13;;;;;;;;;;;;;;;22.06;64.92;97081.38;4217907;28;5119;-63
2023/09/19 07:30:17;;;;;;;;;;;;;;;22.06;64.56;97085.94;4219799;28;5827;-63
2023/09/19 07:32:19;;;;;;;;;;;;;;;22.04;64.36;97082.66;4233262;28;5605;-63
2023/09/19 07:34:24;;;;;;;;;;;;;;;22.08;64.41;97083.78;4236486;27;5824;-63
2023/09/19 07:36:29;;;;;;;;;;;;;;;22.08;64.45;97087.31;4231160;28;5685;-63
2023/09/19 07:38:35;;;;;;;;;;;;;;;22.12;64.49;97084.09;4240717;27;5598;-63
2023/09/19 07:40:38;;;;;;;;;;;;;;;22.13;64.41;97096.50;4237424;27;5594;-63
2023/09/19 07:42:41;;;;;;;;;;;;;;;22.11;64.12;97093.25;4234632;27;5673;-62
2023/09/19 07:44:46;;;;;;;;;;;;;;;22.11;64.25;97088.69;4223335;27;5813;-63
2023/09/19 07:46:50;;;;;;;;;;;;;;;22.12;63.97;97084.09;4232626;28;5617;-61
2023/09/19 07:48:53;;;;;;;;;;;;;;;22.14;63.74;97081.97;4231541;28;5622;-62
2023/09/19 07:50:56;;;;;;;;;;;;;;;22.16;64.15;97090.59;4234675;28;5606;-63
2023/09/19 07:52:59;;;;;;;;;;;;;;;22.16;64.04;97085.19;4232851;28;5839;-62
2023/09/19 07:55:07;;;;;;;;;;;;;;;22.16;63.89;97086.00;4233458;28;5700;-62
2023/09/19 07:57:10;;;;;;;;;;;;;;;22.15;63.77;97092.47;4224752;28;5613;-62
2023/09/19 07:59:13;;;;;;;;;;;;;;;22.14;63.12;97090.84;4217243;28;5641;-62
2023/09/19 08:01:16;;;;;;;;;;;;;;;22.15;63.77;97089.78;4227774;28;5601;-62
2023/09/19 08:03:19;;;;;;;;;;;;;;;22.17;63.22;97086.81;4234877;27;5684;-63
2023/09/19 08:05:23;;;;;;;;;;;;;;;22.18;63.36;97096.50;4239876;27;5800;-63
2023/09/19 08:07:26;;;;;;;;;;;;;;;22.19;63.15;97098.13;4234086;28;5882;-63
2023/09/19 08:09:33;;;;;;;;;;;;;;;22.20;63.04;97091.69;4221825;28;5621;-63
2023/09/19 08:11:37;;;;;;;;;;;;;;;22.23;62.91;97097.38;4220261;28;5796;-63
2023/09/19 08:13:43;;;;;;;;;;;;;;;22.27;62.80;97103.03;4225737;28;5594;-62
2023/09/19 08:15:46;;;;;;;;;;;;;;;22.29;62.93;97100.91;4232064;28;5613;-62
2023/09/19 08:17:50;;;;;;;;;;;;;;;22.28;62.90;97099.28;4233157;28;5590;-63
2023/09/19 08:19:52;;;;;;;;;;;;;;;22.26;62.60;97096.84;4230846;28;5880;-63
2023/09/19 08:21:58;;;;;;;;;;;;;;;22.23;62.28;97101.94;4235285;27;5645;-63
2023/09/19 08:24:03;;;;;;;;;;;;;;;22.23;62.28;97101.94;4228781;28;5834;-63
2023/09/19 08:26:07;;;;;;;;;;;;;;;22.23;62.24;97099.25;4239555;27;5715;-63
2023/09/19 08:28:17;;;;;;;;;;;;;;;22.21;62.08;97104.91;4248772;27;5603;-63
2023/09/19 08:30:23;;;;;;;;;;;;;;;22.21;62.23;97101.41;4227374;28;5682;-63
2023/09/19 08:32:29;;;;;;;;;;;;;;;22.20;62.40;97091.69;4225004;28;5782;-63
2023/09/19 08:34:32;;;;;;;;;;;;;;;22.19;62.06;97090.06;4226674;28;5764;-63
2023/09/19 08:36:37;;;;;;;;;;;;;;;22.19;62.39;97090.06;4230065;28;6387;-63
2023/09/19 08:38:38;;;;;;;;;;;;;;;22.18;61.85;97093.81;4228389;28;5621;-63
2023/09/19 08:40:43;;;;;;;;;;;;;;;22.17;61.84;97095.72;4231163;28;5711;-63
2023/09/19 08:42:50;;;;;;;;;;;;;;;22.19;62.15;97090.06;4233147;28;5699;-63
2023/09/19 08:44:56;;;;;;;;;;;;;;;22.21;62.22;97093.31;4233370;27;5759;-64
2023/09/19 08:47:07;;;;;;;;;;;;;;;22.21;62.13;97104.09;4232693;28;5589;-64
2023/09/19 08:49:22;;;;;;;;;;;;;;;22.22;61.81;97106.53;4225610;28;5669;-63
2023/09/19 08:51:30;;;;;;;;;;;;;;;22.23;61.66;97113.53;4225547;28;6302;-63
2023/09/19 08:53:41;;;;;;;;;;;;;;;22.24;61.81;97103.56;4221852;28;6310;-63
2023/09/19 08:55:47;;;;;;;;;;;;;;;22.26;61.58;97106.81;4238862;27;5591;-63
2023/09/19 08:57:53;;;;;;;;;;;;;;;22.26;61.81;97102.22;4241746;27;5617;-63
2023/09/19 08:59:59;;;;;;;;;;;;;;;22.28;61.75;97105.47;4240891;27;5588;-63
2023/09/19 09:02:03;;;;;;;;;;;;;;;22.31;61.56;97113.06;4247922;27;5603;-63
2023/09/19 09:04:12;;;;;;;;;;;;;;;22.35;61.28;97099.88;4243099;27;5606;-63
2023/09/19 09:06:18;;;;;;;;;;;;;;;22.38;61.51;97099.34;4241253;27;5674;-62
2023/09/19 09:08:22;;;;;;;;;;;;;;;22.42;61.31;97103.13;4232832;28;6496;-62
2023/09/19 09:10:26;;;;;;;;;;;;;;;22.44;61.33;97098.31;4232952;28;5798;-63
2023/09/19 09:12:30;;;;;;;;;;;;;;;22.44;61.12;97102.88;4225228;28;5621;-63
2023/09/19 09:14:34;;;;;;;;;;;;;;;22.46;61.17;97096.16;4232658;28;5586;-64
2023/09/19 09:16:38;;;;;;;;;;;;;;;22.48;60.83;97104.78;4228314;28;5692;-63
2023/09/19 09:18:44;;;;;;;;;;;;;;;22.48;61.33;97104.78;4234360;27;6312;-62
2023/09/19 09:20:48;;;;;;;;;;;;;;;22.51;61.29;97100.75;4233435;28;5665;-62
2023/09/19 09:22:55;;;;;;;;;;;;;;;22.52;60.91;97103.19;4232931;28;5587;-63
2023/09/19 09:25:01;;;;;;;;;;;;;;;22.52;61.22;97100.47;4231694;28;6333;-63
2023/09/19 09:27:08;;;;;;;;;;;;;;;22.53;61.11;97096.72;4240317;27;5701;-63
2023/09/19 09:29:13;;;;;;;;;;;;;;;22.51;61.07;97098.88;4232744;28;6315;-63
2023/09/19 09:31:26;;;;;;;;;;;;;;;22.48;61.22;97098.59;4233291;28;5594;-63
2023/09/19 09:33:30;;;;;;;;;;;;;;;22.50;61.02;97107.22;4216988;28;5620;-63
2023/09/19 09:35:33;;;;;;;;;;;;;;;22.50;60.98;97102.63;4220404;28;5605;-63
2023/09/19 09:37:38;;;;;;;;;;;;;;;22.48;60.83;97104.78;4233389;28;5582;-68
2023/09/19 09:39:40;;;;;;;;;;;;;;;22.50;60.76;97099.13;4225854;27;6302;-75
2023/09/19 09:41:43;;;;;;;;;;;;;;;22.50;60.86;97093.75;4236109;27;5689;-72
2023/09/19 09:43:48;;;;;;;;;;;;;;;22.49;60.92;97101.00;4232702;28;5647;-63
2023/09/19 09:46:11;;;;;;;;;;;;;;;22.50;60.88;97097.25;4236335;27;5730;-64
2023/09/19 09:48:14;;;;;;;;;;;;;;;22.52;60.91;97091.59;4220997;28;5685;-63
2023/09/19 09:50:29;;;;;;;;;;;;;;;22.53;61.21;97094.03;4235748;28;5732;-63
2023/09/19 09:52:45;;;;;;;;;;;;;;;22.53;61.09;97085.13;4236001;27;5827;-63
2023/09/19 09:55:01;;;;;;;;;;;;;;;22.53;60.68;97088.63;4246863;27;5705;-63
2023/09/19 09:57:14;;;;;;;;;;;;;;;22.54;60.30;97082.19;4235999;27;5636;-66
2023/09/19 09:59:18;;;;;;;;;;;;;;;22.53;60.20;97085.94;4235675;28;5701;-64
2023/09/19 10:01:26;;;;;;;;;;;;;;;22.53;60.24;97090.53;4236352;28;5605;-64
2023/09/19 10:03:38;;;;;;;;;;;;;;;22.53;60.29;97083.25;4230772;28;5590;-62
2023/09/19 10:05:46;;;;;;;;;;;;;;;22.53;60.20;97083.25;4236570;27;5716;-63
2023/09/19 10:07:51;;;;;;;;;;;;;;;22.55;59.93;97083.00;4238495;27;5602;-63
2023/09/19 10:09:59;;;;;;;;;;;;;;;22.56;60.34;97087.31;4236108;28;5590;-62
2023/09/19 10:12:08;;;;;;;;;;;;;;;22.56;60.09;97080.06;4234671;28;5598;-63
2023/09/19 10:14:13;;;;;;;;;;;;;;;22.60;60.05;97077.63;4236491;28;6280;-63
2023/09/19 10:16:18;;;;;;;;;;;;;;;22.58;60.21;97080.59;4240946;27;5583;-73
2023/09/19 10:18:23;;;;;;;;;;;;;;;22.59;59.78;97084.09;4246968;27;5604;-73
2023/09/19 10:22:57;;;;;;;;;;;;;;;22.61;59.66;97087.34;4225932;28;5721;-73
2023/09/19 10:25:02;;;;;;;;;;;;;;;22.62;59.93;97078.97;4233698;28;5803;-72
2023/09/19 10:27:08;;;;;;;;;;;;;;;22.61;59.73;97082.75;4232306;28;5722;-72
2023/09/19 10:29:13;;;;;;;;;;;;;;;22.61;59.51;97076.56;4232802;28;5720;-71
2023/09/19 10:31:21;;;;;;;;;;;;;;;22.59;59.33;97078.72;4230512;28;6518;-73
2023/09/19 10:33:26;;;;;;;;;;;;;;;22.57;59.66;97068.19;4234750;28;5760;-73
2023/09/19 10:35:30;;;;;;;;;;;;;;;22.63;59.38;97071.72;4235221;28;5621;-73
2023/09/19 10:37:35;;;;;;;;;;;;;;;22.69;59.78;97073.38;4230848;28;5605;-73
2023/09/19 10:39:41;;;;;;;;;;;;;;;22.74;59.53;97069.88;4226197;28;6130;-73
2023/09/19 10:41:45;;;;;;;;;;;;;;;22.77;59.54;97078.25;4234574;28;5887;-72
2023/09/19 10:43:49;;;;;;;;;;;;;;;22.80;59.26;97079.59;4234112;28;5705;-73
2023/09/19 10:45:53;;;;;;;;;;;;;;;22.82;59.35;97074.75;4239051;28;5693;-72
2023/09/19 10:47:56;;;;;;;;;;;;;;;22.84;59.44;97067.25;4231935;28;5610;-72
2023/09/19 10:49:59;;;;;;;;;;;;;;;22.88;58.85;97079.13;4239548;28;5618;-73
2023/09/19 10:52:03;;;;;;;;;;;;;;;22.88;59.06;97069.16;4224182;28;5077;-73
2023/09/19 10:54:13;;;;;;;;;;;;;;;22.87;59.25;97078.28;4229258;28;5594;-72
2023/09/19 10:56:27;;;;;;;;;;;;;;;22.86;58.86;97073.16;4231304;28;5665;-72
2023/09/19 10:58:34;;;;;;;;;;;;;;;22.86;58.78;97070.47;4229418;28;5757;-72
2023/09/19 11:00:55;;;;;;;;;;;;;;;22.86;59.24;97073.16;4230043;28;5767;-72
2023/09/19 11:03:30;;;;;;;;;;;;;;;22.86;59.01;97071.28;4227575;28;5729;-72
2023/09/19 11:05:33;;;;;;;;;;;;;;;22.91;58.61;97081.28;4214996;28;5594;-72
2023/09/19 11:07:58;;;;;;;;;;;;;;;22.93;58.13;97071.03;4227949;28;5688;-73
2023/09/19 11:10:03;;;;;;;;;;;;;;;22.91;58.45;97067.81;4230665;27;5621;-73
2023/09/19 11:12:06;;;;;;;;;;;;;;;22.92;58.08;97077.50;4230662;28;5625;-73
2023/09/19 11:14:16;;;;;;;;;;;;;;;22.90;58.36;97076.97;4230930;28;5718;-73
2023/09/19 11:16:23;;;;;;;;;;;;;;;22.90;58.13;97064.31;4233394;28;5609;-72
2023/09/19 11:18:57;;;;;;;;;;;;;;;22.92;58.26;97070.25;4231529;28;5751;-72
2023/09/19 11:21:31;;;;;;;;;;;;;;;22.86;58.10;97073.97;4229836;28;5767;-72
2023/09/19 11:23:36;;;;;;;;;;;;;;;22.85;58.34;97071.56;4232510;28;5669;-72
2023/09/19 11:25:47;;;;;;;;;;;;;;;22.85;58.44;97066.97;4230789;28;5717;-72
2023/09/19 11:28:28;;;;;;;;;;;;;;;22.84;58.14;97059.97;4228748;28;5590;-72
2023/09/19 11:30:34;;;;;;;;;;;;;;;22.87;58.10;97059.41;4227200;28;5736;-72
2023/09/19 11:33:21;;;;;;;;;;;;;;;22.86;58.04;97055.09;4231396;28;5813;-71
2023/09/19 11:36:01;;;;;;;;;;;;;;;22.89;57.90;97056.50;4221798;28;5704;-71
2023/09/19 11:38:15;;;;;;;;;;;;;;;22.88;58.16;97049.47;4238184;28;5594;-71
2023/09/19 11:40:19;;;;;;;;;;;;;;;22.89;58.16;97049.22;4228923;28;5633;-71
2023/09/19 11:42:45;;;;;;;;;;;;;;;22.90;57.79;97058.09;4230322;27;5658;-71
2023/09/19 11:44:51;;;;;;;;;;;;;;;22.84;58.04;97049.19;4234252;28;5625;-71
2023/09/19 11:46:58;;;;;;;;;;;;;;;22.85;57.77;97042.72;4232245;28;5669;-71
2023/09/19 11:49:09;;;;;;;;;;;;;;;22.88;58.14;97038.69;4230769;28;5713;-71
2023/09/19 11:51:19;;;;;;;;;;;;;;;22.90;58.08;97037.34;4222657;28;5600;-72
2023/09/19 11:53:23;;;;;;;;;;;;;;;22.94;57.94;97032.22;4222432;28;5612;-72
2023/09/19 11:55:30;;;;;;;;;;;;;;;22.98;58.30;97038.69;4241570;27;5671;-71
2023/09/19 11:57:35;;;;;;;;;;;;;;;23.01;58.19;97029.28;4244809;27;5615;-71
2023/09/19 11:59:40;;;;;;;;;;;;;;;23.01;57.88;97032.78;4238428;28;5718;-70
2023/09/19 12:01:54;;;;;;;;;;;;;;;23.02;58.09;97033.59;4224498;28;5839;-71
2023/09/19 12:04:00;;;;;;;;;;;;;;;23.06;58.00;97032.78;4228908;28;5871;-71
2023/09/19 12:06:11;;;;;;;;;;;;;;;23.03;58.28;97036.03;4229600;28;5609;-71
2023/09/19 12:08:16;;;;;;;;;;;;;;;23.02;57.98;97029.03;4221312;28;5653;-70
2023/09/19 12:10:22;;;;;;;;;;;;;;;22.99;58.16;97039.50;4222254;28;5613;-71
2023/09/19 12:12:27;;;;;;;;;;;;;;;22.98;58.35;97025.22;4228578;28;5594;-71
2023/09/19 12:14:31;;;;;;;;;;;;;;;22.95;58.20;97029.25;4240784;27;5788;-72
2023/09/19 12:16:36;;;;;;;;;;;;;;;22.94;58.34;97032.22;4249067;27;5618;-72
2023/09/19 12:18:38;;;;;;;;;;;;;;;22.94;58.51;97024.94;4233110;28;5513;-71
2023/09/19 12:20:47;;;;;;;;;;;;;;;22.97;58.07;97026.28;4227162;28;5701;-71
2023/09/19 12:22:53;;;;;;;;;;;;;;;22.98;57.86;97019.81;4231582;28;5716;-71
2023/09/19 12:25:07;;;;;;;;;;;;;;;22.98;58.10;97022.53;4228136;27;5772;-71
2023/09/19 12:27:11;;;;;;;;;;;;;;;23.02;58.27;97018.22;4230665;28;5705;-72
2023/09/19 12:29:15;;;;;;;;;;;;;;;23.02;56.83;97015.53;4235636;28;5606;-72
2023/09/19 12:31:19;;;;;;;;;;;;;;;22.97;56.79;97015.50;4229584;28;5602;-72
2023/09/19 12:33:25;;;;;;;;;;;;;;;22.97;55.95;97014.69;4237671;27;5728;-72
2023/09/19 12:35:30;;;;;;;;;;;;;;;22.93;56.08;97007.16;4240673;27;5141;-72
2023/09/19 12:37:36;;;;;;;;;;;;;;;22.96;56.33;97008.50;4236861;28;5606;-71
2023/09/19 12:39:48;;;;;;;;;;;;;;;22.98;56.52;97017.13;4242121;27;5099;-71
2023/09/19 12:41:51;;;;;;;;;;;;;;;23.00;56.22;97015.00;4238621;27;5781;-73
2023/09/19 12:43:54;;;;;;;;;;;;;;;23.01;56.41;97011.22;4232951;27;5541;-72
2023/09/19 12:45:57;;;;;;;;;;;;;;;23.03;56.65;97009.06;4231147;28;5618;-72
2023/09/19 12:48:21;;;;;;;;;;;;;;;23.05;56.49;97004.22;4229785;28;5616;-72
2023/09/19 12:50:29;;;;;;;;;;;;;;;23.05;56.78;97006.91;4229902;28;5728;-72
2023/09/19 12:52:36;;;;;;;;;;;;;;;23.05;56.56;97006.09;4229943;28;5740;-72
2023/09/19 12:54:40;;;;;;;;;;;;;;;23.06;55.93;97003.13;4237237;28;5586;-73
2023/09/19 12:56:47;;;;;;;;;;;;;;;23.06;56.50;96992.34;4235695;28;5748;-71
2023/09/19 12:58:53;;;;;;;;;;;;;;;23.10;55.73;96998.81;4236760;28;5701;-71
2023/09/19 13:00:57;;;;;;;;;;;;;;;23.08;55.95;96995.56;4244970;27;6280;-70
2023/09/19 13:03:15;;;;;;;;;;;;;;;23.10;56.27;96993.41;4249285;27;5575;-71
2023/09/19 13:05:19;;;;;;;;;;;;;;;23.11;56.09;96992.38;4240365;27;5613;-70
2023/09/19 13:07:45;;;;;;;;;;;;;;;23.14;55.77;96991.81;4232177;28;7152;-71
2023/09/19 13:10:07;;;;;;;;;;;;;;;23.15;55.83;96990.75;4230725;28;6831;-72
2023/09/19 13:12:38;;;;;;;;;;;;;;;23.14;56.17;96985.63;4234192;27;5599;-72
2023/09/19 13:14:46;;;;;;;;;;;;;;;23.12;56.36;96983.19;4233374;28;5860;-72
2023/09/19 13:17:04;;;;;;;;;;;;;;;23.12;56.23;96979.69;4235580;27;5729;-71
2023/09/19 13:19:09;;;;;;;;;;;;;;;23.12;55.98;96977.00;4221247;28;5760;-72
2023/09/19 13:21:14;;;;;;;;;;;;;;;23.12;56.36;96972.41;4221831;28;5728;-71
2023/09/19 13:23:28;;;;;;;;;;;;;;;23.15;55.91;96979.16;4243256;27;5653;-71
2023/09/19 13:25:32;;;;;;;;;;;;;;;23.13;56.09;96965.94;4233325;27;5598;-71
2023/09/19 13:27:35;;;;;;;;;;;;;;;23.13;55.94;96975.91;4232628;28;5677;-74
2023/09/19 13:29:37;;;;;;;;;;;;;;;23.14;55.85;96966.75;4232991;27;5735;-73
2023/09/19 13:31:41;;;;;;;;;;;;;;;23.14;55.56;96961.34;4236837;28;5606;-72
2023/09/19 13:33:45;;;;;;;;;;;;;;;23.16;55.87;96953.78;4234929;28;5830;-71
2023/09/19 13:35:48;;;;;;;;;;;;;;;23.18;56.06;96957.03;4237249;28;5622;-73
2023/09/19 13:37:52;;;;;;;;;;;;;;;23.19;56.11;96954.06;4228470;28;5598;-72
2023/09/19 13:39:57;;;;;;;;;;;;;;;23.19;55.41;96951.38;4237717;27;5587;-71
2023/09/19 13:41:59;;;;;;;;;;;;;;;23.20;55.57;96954.88;4237310;27;5578;-72
2023/09/19 13:44:02;;;;;;;;;;;;;;;23.20;55.76;96955.66;4236815;28;5873;-71
2023/09/19 13:46:07;;;;;;;;;;;;;;;23.20;55.50;96955.66;4234263;28;5614;-72
2023/09/19 13:48:11;;;;;;;;;;;;;;;23.19;55.59;96948.66;4237194;28;5633;-70
2023/09/19 13:50:14;;;;;;;;;;;;;;;23.19;55.36;96945.16;4236394;28;5642;-71
2023/09/19 13:52:17;;;;;;;;;;;;;;;23.15;55.30;96942.19;4238668;27;5735;-71
2023/09/19 13:54:20;;;;;;;;;;;;;;;23.16;55.33;96937.63;4232300;27;5799;-71
2023/09/19 13:56:27;;;;;;;;;;;;;;;23.17;55.97;96940.03;4226695;28;5676;-72
2023/09/19 13:58:33;;;;;;;;;;;;;;;23.20;55.87;96930.59;4232920;27;5625;-72
2023/09/19 14:00:36;;;;;;;;;;;;;;;23.22;55.82;96933.84;4226885;28;5616;-71
2023/09/19 14:02:39;;;;;;;;;;;;;;;23.24;55.39;96929.00;4226761;28;5838;-72
2023/09/19 14:04:43;;;;;;;;;;;;;;;23.22;55.34;96931.97;4227928;28;5680;-72
2023/09/19 14:06:46;;;;;;;;;;;;;;;23.21;55.61;96924.94;4219369;28;5809;-72
2023/09/19 14:08:49;;;;;;;;;;;;;;;23.21;55.63;96924.94;4230487;27;5993;-72
2023/09/19 14:10:53;;;;;;;;;;;;;;;23.23;55.61;96925.50;4218334;28;5748;-71
2023/09/19 14:12:58;;;;;;;;;;;;;;;23.23;55.40;96924.69;4234963;27;5621;-71
2023/09/19 14:15:01;;;;;;;;;;;;;;;23.23;55.70;96921.97;4232964;27;5610;-71
2023/09/19 14:17:04;;;;;;;;;;;;;;;23.20;55.55;96922.50;4225300;27;5627;-72
2023/09/19 14:19:07;;;;;;;;;;;;;;;23.20;55.36;96920.63;4232215;28;5717;-71
2023/09/19 14:21:11;;;;;;;;;;;;;;;23.20;55.25;96919.81;4229712;27;5833;-71
2023/09/19 14:23:14;;;;;;;;;;;;;;;23.21;55.40;96918.72;4228183;27;5692;-72
2023/09/19 14:25:17;;;;;;;;;;;;;;;23.23;55.42;96920.09;4225307;28;5720;-72
2023/09/19 14:27:20;;;;;;;;;;;;;;;23.25;55.33;96919.81;4233291;28;5776;-71
2023/09/19 14:29:24;;;;;;;;;;;;;;;23.26;55.29;96920.63;4224224;28;5757;-71
2023/09/19 14:31:27;;;;;;;;;;;;;;;23.24;55.21;96910.91;4225676;27;5713;-72
2023/09/19 14:33:30;;;;;;;;;;;;;;;23.27;55.07;96906.88;4226921;27;5517;-72
2023/09/19 14:35:33;;;;;;;;;;;;;;;23.27;55.27;96912.25;4224521;27;6285;-72
2023/09/19 14:37:38;;;;;;;;;;;;;;;23.30;55.37;96916.31;4227764;27;5698;-71
2023/09/19 14:39:44;;;;;;;;;;;;;;;23.29;54.73;96903.91;4231780;28;5616;-71
2023/09/19 14:41:47;;;;;;;;;;;;;;;23.30;54.97;96910.91;4219714;28;5759;-72
2023/09/19 14:43:49;;;;;;;;;;;;;;;23.31;54.95;96907.13;4233194;28;5582;-72
2023/09/19 14:45:54;;;;;;;;;;;;;;;23.33;54.36;96899.56;4226834;28;5692;-71
2023/09/19 14:47:57;;;;;;;;;;;;;;;23.33;54.46;96902.25;4226431;28;5711;-72
2023/09/19 14:49:59;;;;;;;;;;;;;;;23.33;54.64;96905.78;4232448;28;5688;-72
2023/09/19 14:52:03;;;;;;;;;;;;;;;23.33;53.74;96905.78;4224963;28;5688;-72
2023/09/19 14:54:07;;;;;;;;;;;;;;;23.33;53.16;96910.34;4228035;28;5617;-72
2023/09/19 14:56:12;;;;;;;;;;;;;;;23.34;53.25;96901.22;4225109;28;5759;-72
2023/09/19 14:58:15;;;;;;;;;;;;;;;23.32;53.55;96904.16;4224077;28;5831;-73
2023/09/19 15:00:21;;;;;;;;;;;;;;;23.34;53.46;96901.22;4218940;28;6024;-72
2023/09/19 15:02:25;;;;;;;;;;;;;;;23.36;53.76;96901.75;4231612;28;5849;-73
2023/09/19 15:04:28;;;;;;;;;;;;;;;23.37;53.46;96895.25;4234107;28;5621;-73
2023/09/19 15:06:31;;;;;;;;;;;;;;;23.38;53.58;96891.47;4221811;28;5756;-72
2023/09/19 15:08:38;;;;;;;;;;;;;;;23.40;53.68;96895.50;4222648;28;5798;-72
2023/09/19 15:10:41;;;;;;;;;;;;;;;23.41;53.73;96896.31;4234312;28;5701;-72
2023/09/19 15:12:44;;;;;;;;;;;;;;;23.41;53.22;96888.22;4232870;28;5700;-73
2023/09/19 15:14:47;;;;;;;;;;;;;;;23.42;53.79;96895.25;4227366;28;5080;-72
2023/09/19 15:16:49;;;;;;;;;;;;;;;23.43;53.52;96894.97;4226632;28;5602;-72
2023/09/19 15:18:55;;;;;;;;;;;;;;;23.43;53.20;96892.25;4233996;28;5693;-72
2023/09/19 15:20:58;;;;;;;;;;;;;;;23.44;53.19;96890.38;4227551;28;5709;-72
2023/09/19 15:23:01;;;;;;;;;;;;;;;23.44;53.50;96890.38;4225381;28;5602;-72
2023/09/19 15:25:05;;;;;;;;;;;;;;;23.45;53.31;96886.63;4225387;28;5748;-72
2023/09/19 15:27:08;;;;;;;;;;;;;;;23.45;53.69;96890.13;4214996;28;5655;-72
2023/09/19 15:29:12;;;;;;;;;;;;;;;23.45;53.57;96887.44;4232959;28;5629;-70
2023/09/19 15:31:16;;;;;;;;;;;;;;;23.46;53.53;96889.03;4227773;28;5625;-72
2023/09/19 15:33:19;;;;;;;;;;;;;;;23.46;53.70;96883.66;4240628;27;6446;-72
2023/09/19 15:35:23;;;;;;;;;;;;;;;23.45;53.21;96882.03;4232214;28;5641;-73
2023/09/19 15:37:26;;;;;;;;;;;;;;;23.46;53.27;96877.44;4228739;28;5712;-72
2023/09/19 15:39:33;;;;;;;;;;;;;;;23.48;53.29;96880.66;4232423;28;5739;-72
2023/09/19 15:41:38;;;;;;;;;;;;;;;23.46;52.99;96880.94;4218915;28;5712;-72
2023/09/19 15:43:41;;;;;;;;;;;;;;;23.45;52.78;96882.03;4223682;27;7691;-73
2023/09/19 15:45:44;;;;;;;;;;;;;;;23.46;52.85;96880.16;4226899;27;5735;-73
2023/09/19 15:47:47;;;;;;;;;;;;;;;23.49;53.04;96884.97;4226697;27;5708;-72
2023/09/19 15:49:50;;;;;;;;;;;;;;;23.49;53.43;96882.28;4224173;28;5614;-69
2023/09/19 15:51:54;;;;;;;;;;;;;;;23.49;53.14;96882.28;4219217;28;5703;-71
2023/09/19 15:53:59;;;;;;;;;;;;;;;23.45;53.74;96871.25;4228669;28;5598;-72
2023/09/19 15:56:06;;;;;;;;;;;;;;;23.47;53.38;96879.06;4232740;28;5836;-72
2023/09/19 15:58:09;;;;;;;;;;;;;;;23.48;53.53;96877.97;4225969;28;5677;-71
2023/09/19 16:00:17;;;;;;;;;;;;;;;23.50;53.58;96881.19;4231585;28;5590;-71
2023/09/19 16:02:19;;;;;;;;;;;;;;;23.52;53.50;96881.72;4218188;28;5834;-72
2023/09/19 16:04:23;;;;;;;;;;;;;;;23.50;53.33;96879.31;4218243;28;5899;-74
2023/09/19 16:06:26;;;;;;;;;;;;;;;23.51;53.59;96880.13;4227040;28;5628;-74
2023/09/19 16:08:30;;;;;;;;;;;;;;;23.50;53.53;96884.72;4222942;28;5593;-74
2023/09/19 16:10:36;;;;;;;;;;;;;;;23.50;53.68;96878.50;4228458;28;5764;-72
2023/09/19 16:12:38;;;;;;;;;;;;;;;23.51;53.86;96882.81;4233040;27;5700;-72
2023/09/19 16:14:41;;;;;;;;;;;;;;;23.50;53.51;96870.41;4219276;27;5839;-70
2023/09/19 16:16:44;;;;;;;;;;;;;;;23.51;53.21;96874.72;4220932;28;6350;-70